createdAt,value
2017-09-18T00:00:20.223Z,8.50
2017-09-18T00:03:22.574Z,8.50
2017-09-18T00:06:24.509Z,8.50
2017-09-18T00:09:26.888Z,8.50
2017-09-18T00:12:29.661Z,8.40
2017-09-18T00:15:32.116Z,8.30
2017-09-18T00:18:34.070Z,8.30
2017-09-18T00:21:36.365Z,8.30
2017-09-18T00:24:38.355Z,8.20
2017-09-18T00:27:40.728Z,8.20
2017-09-18T00:30:42.669Z,8.20
2017-09-18T00:33:45.040Z,8.20
2017-09-18T00:36:46.976Z,8.20
2017-09-18T00:39:49.346Z,8.20
2017-09-18T00:42:51.449Z,8.10
2017-09-18T00:45:54.579Z,8.20
2017-09-18T00:48:56.526Z,8.10
2017-09-18T00:51:58.880Z,8.20
2017-09-18T00:55:00.804Z,8.20
2017-09-18T00:58:03.211Z,8.20
2017-09-18T01:01:05.147Z,8.20
2017-09-18T01:04:07.514Z,8.20
2017-09-18T01:07:09.446Z,8.20
2017-09-18T01:10:11.789Z,8.30
2017-09-18T01:13:13.716Z,8.30
2017-09-18T01:16:16.085Z,8.30
2017-09-18T01:19:18.238Z,8.30
2017-09-18T01:22:20.603Z,8.30
2017-09-18T01:25:23.046Z,8.20
2017-09-18T01:28:25.442Z,8.20
2017-09-18T01:31:27.483Z,8.20
2017-09-18T01:34:29.853Z,8.20
2017-09-18T01:37:31.797Z,8.20
2017-09-18T01:40:34.284Z,8.20
2017-09-18T01:43:36.272Z,8.20
2017-09-18T01:46:38.687Z,8.20
2017-09-18T01:49:40.700Z,8.20
2017-09-18T01:52:43.062Z,8.20
2017-09-18T01:55:44.983Z,8.10
2017-09-18T01:58:47.391Z,8.10
2017-09-18T02:01:49.330Z,8.00
2017-09-18T02:04:51.776Z,7.90
2017-09-18T02:07:53.997Z,7.90
2017-09-18T02:10:56.382Z,7.80
2017-09-18T02:13:58.307Z,7.70
2017-09-18T02:17:00.688Z,7.60
2017-09-18T02:20:02.619Z,7.60
2017-09-18T02:23:04.991Z,7.50
2017-09-18T02:26:06.923Z,7.40
2017-09-18T02:29:09.290Z,7.40
2017-09-18T02:32:11.218Z,7.40
2017-09-18T02:35:13.598Z,7.30
2017-09-18T02:38:15.746Z,7.30
2017-09-18T02:41:18.116Z,7.30
2017-09-18T02:44:20.059Z,7.20
2017-09-18T02:47:22.419Z,7.20
2017-09-18T02:50:24.515Z,7.20
2017-09-18T02:53:26.871Z,7.20
2017-09-18T02:56:28.968Z,7.20
2017-09-18T02:59:31.340Z,7.20
2017-09-18T03:02:33.319Z,7.30
2017-09-18T03:05:35.794Z,7.40
2017-09-18T03:08:37.765Z,7.40
2017-09-18T03:11:40.876Z,7.50
2017-09-18T03:14:42.799Z,7.50
2017-09-18T03:17:45.163Z,7.50
2017-09-18T03:20:47.092Z,7.50
2017-09-18T03:23:49.463Z,7.50
2017-09-18T03:26:51.423Z,7.50
2017-09-18T03:29:53.778Z,7.50
2017-09-18T03:32:55.856Z,7.40
2017-09-18T03:35:58.187Z,7.40
2017-09-18T03:39:00.145Z,7.40
2017-09-18T03:42:02.588Z,7.40
2017-09-18T03:45:04.700Z,7.30
2017-09-18T03:48:07.024Z,7.20
2017-09-18T03:51:08.975Z,7.20
2017-09-18T03:54:11.243Z,7.20
2017-09-18T03:57:13.255Z,7.10
2017-09-18T04:00:15.814Z,7.10
2017-09-18T04:03:17.832Z,7.00
2017-09-18T04:06:20.937Z,6.90
2017-09-18T04:09:22.893Z,6.90
2017-09-18T04:12:25.236Z,6.90
2017-09-18T04:15:27.162Z,6.80
2017-09-18T04:18:30.202Z,6.70
2017-09-18T04:21:32.231Z,6.70
2017-09-18T04:24:34.586Z,6.70
2017-09-18T04:27:36.627Z,6.70
2017-09-18T04:30:38.982Z,6.60
2017-09-18T04:33:40.902Z,6.60
2017-09-18T04:36:44.106Z,6.50
2017-09-18T04:39:46.036Z,6.50
2017-09-18T04:42:48.520Z,6.40
2017-09-18T04:45:50.543Z,6.40
2017-09-18T04:48:53.603Z,6.30
2017-09-18T04:51:56.431Z,6.30
2017-09-18T04:54:58.777Z,6.30
2017-09-18T04:58:00.709Z,6.30
2017-09-18T05:01:03.180Z,6.40
2017-09-18T05:04:05.115Z,6.40
2017-09-18T05:07:08.385Z,6.40
2017-09-18T05:10:10.348Z,6.40
2017-09-18T05:13:12.708Z,6.40
2017-09-18T05:16:14.649Z,6.50
2017-09-18T05:19:17.012Z,6.50
2017-09-18T05:22:18.951Z,6.60
2017-09-18T05:25:21.319Z,6.70
2017-09-18T05:28:23.304Z,6.70
2017-09-18T05:31:25.615Z,6.80
2017-09-18T05:34:27.570Z,6.80
2017-09-18T05:37:30.040Z,6.90
2017-09-18T05:40:31.973Z,6.90
2017-09-18T05:43:34.445Z,7.00
2017-09-18T05:46:36.385Z,7.10
2017-09-18T05:49:38.744Z,7.10
2017-09-18T05:52:41.634Z,7.20
2017-09-18T05:55:43.962Z,7.20
2017-09-18T05:58:46.115Z,7.30
2017-09-18T06:01:48.669Z,7.40
2017-09-18T06:04:50.622Z,7.50
2017-09-18T06:07:52.985Z,7.60
2017-09-18T06:10:54.945Z,7.60
2017-09-18T06:13:57.391Z,7.70
2017-09-18T06:16:59.318Z,7.70
2017-09-18T06:20:02.413Z,8.00
2017-09-18T06:23:04.339Z,8.00
2017-09-18T06:26:07.430Z,8.20
2017-09-18T06:29:09.380Z,8.20
2017-09-18T06:32:11.752Z,8.30
2017-09-18T06:35:13.798Z,8.50
2017-09-18T06:38:16.143Z,8.50
2017-09-18T06:41:18.100Z,8.50
2017-09-18T06:44:20.477Z,8.60
2017-09-18T06:47:22.510Z,8.70
2017-09-18T06:50:24.968Z,9.30
2017-09-18T06:53:26.911Z,10.00
2017-09-18T06:56:29.276Z,10.50
2017-09-18T06:59:31.216Z,10.70
2017-09-18T07:02:33.584Z,10.80
2017-09-18T07:05:35.532Z,10.80
2017-09-18T07:08:37.807Z,10.90
2017-09-18T07:11:39.743Z,11.10
2017-09-18T07:14:42.846Z,11.20
2017-09-18T07:17:46.387Z,11.30
2017-09-18T07:20:48.749Z,11.30
2017-09-18T07:23:50.800Z,11.50
2017-09-18T07:26:53.177Z,11.70
2017-09-18T07:29:55.205Z,12.00
2017-09-18T07:32:57.561Z,12.20
2017-09-18T07:35:59.504Z,12.60
2017-09-18T07:39:01.885Z,13.00
2017-09-18T07:42:03.825Z,13.40
2017-09-18T07:45:06.180Z,14.00
2017-09-18T07:48:08.141Z,14.80
2017-09-18T07:51:10.480Z,15.90
2017-09-18T07:54:12.542Z,16.70
2017-09-18T07:57:14.901Z,17.30
2017-09-18T08:00:16.830Z,18.00
2017-09-18T08:03:19.136Z,19.10
2017-09-18T08:06:21.142Z,20.10
2017-09-18T08:09:23.599Z,21.00
2017-09-18T08:12:25.534Z,21.40
2017-09-18T08:15:27.913Z,22.10
2017-09-18T08:18:29.847Z,22.90
2017-09-18T08:21:32.215Z,23.60
2017-09-18T08:24:34.155Z,24.30
2017-09-18T08:27:36.546Z,25.10
2017-09-18T08:30:38.476Z,25.60
2017-09-18T08:33:40.814Z,26.40
2017-09-18T08:36:42.872Z,26.60
2017-09-18T08:39:45.253Z,26.80
2017-09-18T08:42:47.196Z,26.90
2017-09-18T08:45:49.515Z,26.50
2017-09-18T08:48:51.477Z,26.60
2017-09-18T08:51:53.834Z,26.50
2017-09-18T08:54:55.945Z,26.80
2017-09-18T08:57:58.549Z,26.40
2017-09-18T09:01:05.021Z,26.10
2017-09-18T09:04:07.363Z,25.90
2017-09-18T09:07:09.436Z,25.20
2017-09-18T09:10:11.728Z,24.40
2017-09-18T09:13:14.540Z,24.70
2017-09-18T09:16:16.904Z,24.70
2017-09-18T09:19:19.035Z,24.40
2017-09-18T09:22:21.504Z,23.50
2017-09-18T09:25:23.449Z,22.50
2017-09-18T09:28:25.825Z,21.70
2017-09-18T09:31:27.882Z,21.00
2017-09-18T09:34:30.248Z,20.00
2017-09-18T09:37:32.269Z,19.20
2017-09-18T09:40:34.627Z,18.10
2017-09-18T09:43:36.702Z,17.50
2017-09-18T09:46:39.039Z,17.10
2017-09-18T09:49:40.990Z,16.90
2017-09-18T09:52:43.353Z,16.90
2017-09-18T09:55:45.293Z,16.80
2017-09-18T09:58:47.663Z,16.90
2017-09-18T10:01:49.702Z,16.50
2017-09-18T10:04:52.113Z,16.20
2017-09-18T10:07:54.951Z,15.80
2017-09-18T10:10:57.384Z,15.80
2017-09-18T10:13:59.318Z,15.50
2017-09-18T10:17:01.618Z,15.30
2017-09-18T10:20:03.554Z,15.20
2017-09-18T10:23:05.893Z,15.00
2017-09-18T10:26:07.842Z,14.90
2017-09-18T10:29:10.191Z,14.70
2017-09-18T10:32:12.151Z,14.60
2017-09-18T10:35:14.584Z,14.60
2017-09-18T10:38:16.562Z,14.60
2017-09-18T10:41:19.025Z,14.60
2017-09-18T10:44:21.020Z,14.90
2017-09-18T10:47:24.136Z,15.80
2017-09-18T10:50:26.071Z,15.70
2017-09-18T10:53:28.435Z,16.40
2017-09-18T10:56:30.372Z,17.60
2017-09-18T10:59:32.744Z,19.20
2017-09-18T11:02:34.687Z,20.70
2017-09-18T11:05:37.053Z,22.00
2017-09-18T11:08:39.003Z,23.30
2017-09-18T11:11:41.359Z,24.80
2017-09-18T11:14:43.298Z,25.80
2017-09-18T11:17:45.588Z,26.00
2017-09-18T11:20:47.629Z,26.00
2017-09-18T11:23:49.988Z,25.00
2017-09-18T11:26:51.915Z,23.30
2017-09-18T11:29:54.205Z,21.80
2017-09-18T11:32:56.144Z,20.70
2017-09-18T11:35:58.491Z,19.70
2017-09-18T11:39:00.551Z,18.90
2017-09-18T11:42:03.078Z,18.30
2017-09-18T11:45:05.015Z,17.90
2017-09-18T11:48:07.380Z,18.00
2017-09-18T11:51:09.348Z,18.90
2017-09-18T11:54:11.703Z,20.40
2017-09-18T11:57:13.642Z,20.60
2017-09-18T12:00:16.018Z,20.70
2017-09-18T12:03:17.938Z,22.50
2017-09-18T12:06:20.316Z,23.90
2017-09-18T12:09:22.248Z,23.90
2017-09-18T12:12:24.556Z,23.60
2017-09-18T12:15:27.260Z,22.30
2017-09-18T12:18:29.959Z,22.30
2017-09-18T12:21:31.894Z,21.60
2017-09-18T12:24:34.257Z,20.80
2017-09-18T12:27:36.182Z,19.50
2017-09-18T12:30:38.568Z,18.70
2017-09-18T12:33:41.079Z,18.00
2017-09-18T12:36:44.125Z,16.90
2017-09-18T12:39:46.148Z,16.90
2017-09-18T12:42:48.503Z,16.80
2017-09-18T12:45:50.451Z,17.00
2017-09-18T12:48:52.820Z,17.40
2017-09-18T12:51:54.769Z,17.70
2017-09-18T12:54:57.122Z,17.90
2017-09-18T12:57:59.057Z,17.80
2017-09-18T13:01:01.417Z,17.90
2017-09-18T13:04:03.376Z,18.20
2017-09-18T13:07:05.827Z,18.90
2017-09-18T13:10:07.768Z,19.30
2017-09-18T13:13:10.135Z,19.30
2017-09-18T13:16:12.380Z,19.20
2017-09-18T13:19:14.745Z,19.00
2017-09-18T13:22:16.791Z,18.80
2017-09-18T13:25:19.089Z,19.20
2017-09-18T13:28:21.109Z,21.70
2017-09-18T13:31:23.554Z,24.40
2017-09-18T13:34:26.234Z,24.90
2017-09-18T13:37:28.567Z,26.40
2017-09-18T13:40:30.538Z,27.10
2017-09-18T13:43:33.701Z,26.60
2017-09-18T13:46:35.795Z,25.20
2017-09-18T13:49:38.112Z,23.80
2017-09-18T13:52:40.063Z,22.20
2017-09-18T13:55:42.363Z,21.10
2017-09-18T13:58:45.062Z,19.80
2017-09-18T14:01:47.548Z,19.70
2017-09-18T14:04:49.589Z,19.60
2017-09-18T14:07:51.959Z,19.50
2017-09-18T14:10:53.957Z,19.50
2017-09-18T14:13:56.370Z,19.30
2017-09-18T14:16:59.334Z,18.90
2017-09-18T14:20:01.720Z,18.60
2017-09-18T14:23:03.651Z,18.30
2017-09-18T14:26:05.987Z,18.10
2017-09-18T14:29:07.984Z,17.90
2017-09-18T14:32:11.950Z,17.40
2017-09-18T14:35:13.884Z,17.40
2017-09-18T14:38:17.164Z,17.00
2017-09-18T14:41:19.121Z,17.00
2017-09-18T14:44:21.473Z,16.70
2017-09-18T14:47:23.403Z,16.60
2017-09-18T14:50:25.762Z,16.40
2017-09-18T14:53:27.721Z,16.30
2017-09-18T14:56:30.080Z,16.40
2017-09-18T14:59:32.019Z,16.70
2017-09-18T15:02:34.387Z,17.00
2017-09-18T15:05:36.412Z,17.40
2017-09-18T15:08:38.798Z,17.40
2017-09-18T15:11:40.763Z,17.40
2017-09-18T15:14:43.196Z,17.30
2017-09-18T15:17:45.251Z,17.10
2017-09-18T15:20:47.598Z,17.00
2017-09-18T15:23:49.524Z,16.90
2017-09-18T15:26:52.624Z,16.70
2017-09-18T15:29:54.572Z,16.60
2017-09-18T15:32:56.941Z,16.60
2017-09-18T15:35:58.885Z,16.50
2017-09-18T15:39:01.356Z,16.50
2017-09-18T15:42:03.384Z,16.50
2017-09-18T15:45:05.761Z,16.40
2017-09-18T15:48:07.695Z,16.40
2017-09-18T15:51:10.061Z,16.30
2017-09-18T15:54:11.990Z,16.30
2017-09-18T15:57:14.976Z,16.50
2017-09-18T16:00:16.920Z,16.50
2017-09-18T16:03:19.319Z,16.20
2017-09-18T16:06:21.381Z,15.80
2017-09-18T16:09:23.692Z,15.50
2017-09-18T16:12:25.665Z,15.30
2017-09-18T16:15:28.011Z,15.40
2017-09-18T16:18:30.084Z,15.40
2017-09-18T16:21:33.212Z,15.00
2017-09-18T16:24:35.158Z,15.00
2017-09-18T16:27:37.541Z,14.80
2017-09-18T16:30:39.465Z,14.60
2017-09-18T16:33:42.046Z,14.40
2017-09-18T16:36:43.988Z,14.30
2017-09-18T16:39:46.285Z,14.20
2017-09-18T16:42:48.279Z,14.10
2017-09-18T16:45:50.669Z,14.10
2017-09-18T16:48:53.519Z,14.00
2017-09-18T16:51:55.883Z,13.90
2017-09-18T16:54:58.485Z,13.90
2017-09-18T16:58:00.906Z,13.80
2017-09-18T17:01:02.854Z,13.70
2017-09-18T17:04:05.206Z,13.60
2017-09-18T17:07:07.234Z,13.50
2017-09-18T17:10:10.556Z,13.30
2017-09-18T17:13:12.700Z,13.30
2017-09-18T17:16:15.063Z,13.20
2017-09-18T17:19:17.012Z,13.20
2017-09-18T17:22:19.399Z,13.10
2017-09-18T17:25:21.390Z,13.00
2017-09-18T17:28:23.803Z,12.90
2017-09-18T17:31:25.743Z,12.80
2017-09-18T17:34:29.065Z,12.60
2017-09-18T17:37:31.168Z,12.60
2017-09-18T17:40:33.522Z,12.60
2017-09-18T17:43:35.576Z,12.60
2017-09-18T17:46:37.951Z,12.50
2017-09-18T17:49:40.573Z,12.40
2017-09-18T17:52:43.685Z,12.30
2017-09-18T17:55:45.658Z,12.30
2017-09-18T17:58:47.992Z,12.20
2017-09-18T18:01:49.945Z,12.20
2017-09-18T18:04:52.304Z,12.00
2017-09-18T18:07:54.259Z,12.00
2017-09-18T18:10:56.564Z,11.90
2017-09-18T18:13:59.375Z,11.70
2017-09-18T18:17:01.824Z,11.60
2017-09-18T18:20:03.768Z,11.60
2017-09-18T18:23:07.083Z,11.40
2017-09-18T18:26:09.132Z,11.40
2017-09-18T18:29:11.574Z,11.30
2017-09-18T18:32:13.617Z,11.20
2017-09-18T18:35:15.975Z,11.10
2017-09-18T18:38:17.937Z,11.00
2017-09-18T18:41:20.273Z,11.00
2017-09-18T18:44:22.240Z,10.90
2017-09-18T18:47:25.213Z,10.80
2017-09-18T18:50:27.207Z,10.80
2017-09-18T18:53:30.357Z,10.60
2017-09-18T18:56:32.397Z,10.60
2017-09-18T18:59:34.767Z,10.60
2017-09-18T19:02:36.773Z,10.50
2017-09-18T19:05:39.129Z,10.40
2017-09-18T19:08:41.100Z,10.40
2017-09-18T19:11:43.558Z,10.50
2017-09-18T19:14:45.590Z,10.40
2017-09-18T19:17:47.982Z,10.40
2017-09-18T19:20:49.934Z,10.40
2017-09-18T19:23:52.264Z,10.40
2017-09-18T19:26:54.536Z,10.40
2017-09-18T19:29:57.042Z,10.40
2017-09-18T19:32:59.760Z,10.10
2017-09-18T19:36:02.101Z,10.20
2017-09-18T19:39:04.039Z,10.10
2017-09-18T19:42:06.387Z,10.00
2017-09-18T19:45:08.326Z,9.90
2017-09-18T19:48:10.675Z,9.90
2017-09-18T19:51:12.603Z,9.80
2017-09-18T19:54:16.554Z,9.70
2017-09-18T19:57:18.476Z,9.70
2017-09-18T20:00:20.854Z,9.70
2017-09-18T20:03:23.084Z,9.60
2017-09-18T20:06:25.476Z,9.60
2017-09-18T20:09:27.433Z,9.50
2017-09-18T20:12:29.744Z,9.50
2017-09-18T20:15:32.740Z,9.40
2017-09-18T20:18:35.118Z,9.40
2017-09-18T20:21:37.176Z,9.40
2017-09-18T20:24:39.531Z,9.40
2017-09-18T20:27:42.324Z,9.30
2017-09-18T20:30:44.641Z,9.30
2017-09-18T20:33:46.688Z,9.20
2017-09-18T20:36:49.063Z,9.20
2017-09-18T20:39:51.017Z,9.20
2017-09-18T20:42:53.331Z,9.20
2017-09-18T20:45:55.261Z,9.20
2017-09-18T20:48:58.381Z,9.30
2017-09-18T20:52:00.329Z,9.30
2017-09-18T20:55:02.677Z,9.30
2017-09-18T20:58:04.637Z,9.40
2017-09-18T21:01:07.770Z,9.40
2017-09-18T21:04:10.589Z,9.50
2017-09-18T21:07:12.926Z,9.40
2017-09-18T21:10:14.872Z,9.50
2017-09-18T21:13:17.234Z,9.60
2017-09-18T21:16:19.271Z,9.60
2017-09-18T21:19:21.659Z,9.60
2017-09-18T21:22:23.608Z,9.60
2017-09-18T21:25:25.951Z,9.60
2017-09-18T21:28:27.930Z,9.60
2017-09-18T21:31:30.235Z,9.70
2017-09-18T21:34:32.217Z,9.70
2017-09-18T21:37:34.668Z,9.70
2017-09-18T21:40:36.733Z,9.70
2017-09-18T21:43:39.039Z,9.70
2017-09-18T21:46:41.835Z,9.70
2017-09-18T21:49:44.221Z,9.70
2017-09-18T21:52:46.232Z,9.70
2017-09-18T21:55:48.597Z,9.70
2017-09-18T21:58:50.528Z,9.70
2017-09-18T22:01:53.921Z,9.70
2017-09-18T22:04:55.971Z,9.80
2017-09-18T22:07:58.345Z,9.80
2017-09-18T22:11:00.283Z,9.80
2017-09-18T22:14:02.701Z,9.80
2017-09-18T22:17:05.459Z,9.70
2017-09-18T22:20:09.608Z,9.70
2017-09-18T22:23:11.639Z,9.70
2017-09-18T22:26:13.935Z,9.70
2017-09-18T22:29:15.969Z,9.70
2017-09-18T22:32:18.345Z,9.60
2017-09-18T22:35:20.377Z,9.60
2017-09-18T22:38:22.734Z,9.60
2017-09-18T22:41:24.670Z,9.60
2017-09-18T22:44:27.028Z,9.50
2017-09-18T22:47:28.969Z,9.50
2017-09-18T22:50:31.342Z,9.50
2017-09-18T22:53:33.878Z,9.40
2017-09-18T22:56:37.179Z,9.30
2017-09-18T22:59:39.405Z,9.30
2017-09-18T23:02:43.244Z,9.20
2017-09-18T23:05:45.578Z,9.20
2017-09-18T23:08:48.034Z,9.10
2017-09-18T23:11:49.982Z,9.10
2017-09-18T23:14:52.347Z,9.00
2017-09-18T23:17:54.270Z,9.00
2017-09-18T23:20:57.374Z,8.90
2017-09-18T23:23:59.308Z,8.90
2017-09-18T23:27:01.662Z,8.90
2017-09-18T23:30:03.601Z,8.90
2017-09-18T23:33:06.660Z,8.80
2017-09-18T23:36:08.588Z,8.80
2017-09-18T23:39:10.920Z,8.70
2017-09-18T23:42:12.852Z,8.70
2017-09-18T23:45:15.304Z,8.70
2017-09-18T23:48:17.294Z,8.70
2017-09-18T23:51:19.549Z,8.60
2017-09-18T23:54:21.566Z,8.60
2017-09-18T23:57:23.906Z,8.60
